Terminal Aerodrome Forecast
Issued by NWS Sterling, VA

Current Version | Previous Version | Text Only | Print | Product List | Glossary Off
Versions: 1 2 3 4 5 6 7 8 9 10 11 12 13 14 15 16 17 18 19 20 21 22 23 24 25 26 27

000
FTUS41 KLWX 131100
TAFIAD
TAF
KIAD 131130Z 1312/1418 16007KT P6SM BKN250
     FM131500 18012KT P6SM FEW250
     FM131700 19013G21KT P6SM FEW250
     FM140100 18011KT P6SM SCT250
     FM141300 19012KT P6SM FEW050 SCT130=

USA.gov is the U.S. government's official web portal to all federal, state and local government web resources and services.